createdAt,value
2023-01-26T00:00:19.265Z,98.90
2023-01-26T00:03:42.198Z,101.50
2023-01-26T00:06:45.156Z,93.10
2023-01-26T00:09:48.056Z,84.80
2023-01-26T00:12:50.798Z,89.30
2023-01-26T00:15:53.578Z,81.60
2023-01-26T00:18:56.618Z,90.60
2023-01-26T00:21:59.361Z,100.10
2023-01-26T00:25:02.142Z,87.10
2023-01-26T00:28:05.317Z,86.70
2023-01-26T00:31:13.208Z,100.10
2023-01-26T00:34:16.169Z,94.30
2023-01-26T00:37:21.213Z,102.30
2023-01-26T00:40:24.093Z,87.10
2023-01-26T00:43:28.094Z,91.50
2023-01-26T00:46:30.898Z,87.10
2023-01-26T00:49:34.362Z,79.60
2023-01-26T00:52:37.243Z,87.70
2023-01-26T00:55:40.078Z,90.10
2023-01-26T00:58:44.768Z,88.90
2023-01-26T01:01:48.213Z,81.50
2023-01-26T01:04:51.062Z,84.60
2023-01-26T01:07:55.555Z,86.20
2023-01-26T01:11:06.719Z,95.40
2023-01-26T01:14:10.282Z,100.00
2023-01-26T01:17:13.888Z,111.60
2023-01-26T01:20:16.666Z,108.90
2023-01-26T01:23:19.462Z,117.30
2023-01-26T01:26:24.155Z,103.30
2023-01-26T01:29:28.755Z,87.60
2023-01-26T01:32:31.638Z,95.50
2023-01-26T01:35:35.963Z,90.10
2023-01-26T01:38:39.079Z,97.40
2023-01-26T01:41:44.542Z,91.30
2023-01-26T01:45:25.932Z,108.70
2023-01-26T01:48:43.545Z,94.90
2023-01-26T01:52:26.232Z,99.70
2023-01-26T01:55:29.618Z,100.70
2023-01-26T01:58:37.806Z,97.10
2023-01-26T02:01:41.895Z,109.60
2023-01-26T02:04:45.198Z,103.80
2023-01-26T02:07:52.523Z,106.20
2023-01-26T02:10:59.714Z,92.40
2023-01-26T02:14:10.622Z,94.20
2023-01-26T02:17:13.355Z,89.20
2023-01-26T02:20:40.991Z,106.70
2023-01-26T02:24:22.414Z,94.90
2023-01-26T02:27:28.702Z,90.40
2023-01-26T02:30:31.969Z,96.80
2023-01-26T02:33:35.466Z,107.60
2023-01-26T02:36:39.631Z,130.50
2023-01-26T02:40:09.526Z,204.40
2023-01-26T02:43:12.544Z,158.50
2023-01-26T02:46:17.448Z,113.30
2023-01-26T02:49:39.462Z,111.00
2023-01-26T02:52:42.546Z,112.10
2023-01-26T02:55:53.763Z,128.10
2023-01-26T02:58:56.590Z,108.60
2023-01-26T03:01:59.660Z,122.10
2023-01-26T03:05:04.688Z,150.70
2023-01-26T03:08:07.831Z,122.90
2023-01-26T03:11:14.722Z,122.70
2023-01-26T03:14:19.799Z,115.00
2023-01-26T03:17:24.716Z,124.80
2023-01-26T03:20:48.052Z,112.70
2023-01-26T03:24:12.610Z,127.10
2023-01-26T03:27:27.385Z,114.00
2023-01-26T03:30:35.397Z,122.80
2023-01-26T03:33:38.242Z,124.80
2023-01-26T03:36:41.324Z,121.00
2023-01-26T03:40:10.492Z,116.10
2023-01-26T03:43:32.497Z,120.70
2023-01-26T03:46:54.350Z,129.40
2023-01-26T03:50:15.774Z,135.40
2023-01-26T03:53:40.156Z,131.10
2023-01-26T03:56:45.028Z,122.00
2023-01-26T03:59:53.400Z,126.70
2023-01-26T04:03:15.904Z,126.60
2023-01-26T04:06:37.263Z,117.20
2023-01-26T04:09:40.213Z,119.30
2023-01-26T04:12:50.068Z,130.80
2023-01-26T04:16:17.010Z,125.60
2023-01-26T04:19:38.505Z,132.30
2023-01-26T04:22:45.341Z,135.20
2023-01-26T04:25:50.918Z,130.60
2023-01-26T04:28:56.263Z,129.20
2023-01-26T04:31:59.115Z,125.20
2023-01-26T04:35:04.354Z,122.90
2023-01-26T04:38:08.468Z,134.20
2023-01-26T04:41:11.484Z,132.20
2023-01-26T04:44:20.066Z,134.20
2023-01-26T04:47:28.978Z,139.10
2023-01-26T04:50:32.632Z,134.30
2023-01-26T04:53:35.781Z,134.40
2023-01-26T04:56:38.788Z,119.10
2023-01-26T04:59:41.576Z,128.60
2023-01-26T05:02:44.557Z,133.90
2023-01-26T05:05:53.589Z,119.80
2023-01-26T05:08:58.591Z,116.10
2023-01-26T05:15:47.356Z,120.20
2023-01-26T05:19:10.637Z,119.80
2023-01-26T05:22:25.513Z,117.10
2023-01-26T05:25:48.226Z,123.30
2023-01-26T05:28:51.031Z,114.90
2023-01-26T05:31:53.868Z,110.80
2023-01-26T05:34:56.964Z,107.70
2023-01-26T05:38:00.728Z,112.10
2023-01-26T05:41:07.880Z,108.20
2023-01-26T05:44:27.106Z,114.40
2023-01-26T05:47:43.225Z,102.40
2023-01-26T05:50:46.139Z,103.80
2023-01-26T05:53:54.654Z,109.00
2023-01-26T05:56:57.755Z,105.90
2023-01-26T06:00:04.396Z,114.20
2023-01-26T06:03:16.550Z,110.00
2023-01-26T06:06:19.745Z,103.80
2023-01-26T06:09:34.601Z,106.90
2023-01-26T06:13:00.856Z,113.40
2023-01-26T06:16:32.125Z,99.10
2023-01-26T06:19:36.271Z,108.90
2023-01-26T06:22:39.188Z,105.30
2023-01-26T06:25:42.137Z,105.00
2023-01-26T06:28:45.655Z,102.70
2023-01-26T06:31:49.881Z,93.90
2023-01-26T06:34:53.643Z,101.30
2023-01-26T06:37:57.513Z,95.50
2023-01-26T06:41:07.250Z,97.20
2023-01-26T06:44:10.869Z,107.80
2023-01-26T06:47:17.281Z,102.00
2023-01-26T06:53:33.074Z,100.00
2023-01-26T06:56:57.682Z,101.60
2023-01-26T07:00:20.376Z,95.50
2023-01-26T07:03:32.029Z,105.40
2023-01-26T07:06:37.656Z,105.00
2023-01-26T07:09:40.493Z,90.00
2023-01-26T07:12:45.779Z,83.30
2023-01-26T07:15:48.579Z,91.60
2023-01-26T07:18:54.651Z,81.60
2023-01-26T07:21:57.555Z,77.30
2023-01-26T07:25:00.294Z,77.60
2023-01-26T07:28:03.061Z,83.40
2023-01-26T07:31:07.536Z,85.50
2023-01-26T07:34:11.264Z,85.90
2023-01-26T07:37:14.036Z,79.30
2023-01-26T07:40:19.647Z,89.30
2023-01-26T07:43:22.463Z,72.70
2023-01-26T07:46:26.630Z,82.20
2023-01-26T07:49:31.569Z,77.20
2023-01-26T07:52:34.347Z,73.40
2023-01-26T07:55:37.144Z,68.80
2023-01-26T07:58:40.398Z,68.80
2023-01-26T08:01:43.136Z,75.20
2023-01-26T08:04:45.923Z,68.80
2023-01-26T08:07:48.960Z,65.00
2023-01-26T08:10:53.792Z,60.40
2023-01-26T08:13:56.773Z,76.70
2023-01-26T08:16:59.740Z,67.20
2023-01-26T08:20:05.163Z,66.10
2023-01-26T08:23:07.946Z,62.90
2023-01-26T08:26:13.726Z,61.80
2023-01-26T08:29:16.657Z,59.90
2023-01-26T08:32:19.474Z,64.60
2023-01-26T08:35:22.336Z,65.50
2023-01-26T08:38:25.100Z,65.30
2023-01-26T08:41:27.877Z,97.70
2023-01-26T08:44:32.918Z,110.20
2023-01-26T08:47:35.679Z,111.20
2023-01-26T08:50:40.967Z,96.00
2023-01-26T08:53:43.739Z,117.90
2023-01-26T08:56:46.672Z,86.40
2023-01-26T08:59:49.412Z,124.10
2023-01-26T09:03:00.256Z,98.00
2023-01-26T09:06:05.077Z,80.90
2023-01-26T09:09:13.189Z,74.10
2023-01-26T09:12:15.998Z,159.50
2023-01-26T09:15:19.069Z,115.50
2023-01-26T09:18:21.913Z,104.50
2023-01-26T09:21:25.006Z,159.30
2023-01-26T09:24:27.840Z,164.10
2023-01-26T09:27:30.779Z,116.90
2023-01-26T09:30:34.105Z,106.30
2023-01-26T09:33:37.799Z,74.40
2023-01-26T09:36:43.582Z,69.70
2023-01-26T09:39:47.096Z,80.80
2023-01-26T09:43:05.338Z,53.00
2023-01-26T09:46:26.372Z,52.90
2023-01-26T09:50:16.764Z,65.10
2023-01-26T09:53:26.403Z,101.40
2023-01-26T09:56:33.013Z,146.40
2023-01-26T10:00:12.792Z,109.40
2023-01-26T10:03:51.647Z,139.10
2023-01-26T10:07:00.862Z,178.50
2023-01-26T10:10:40.736Z,116.60
2023-01-26T10:13:50.976Z,80.40
2023-01-26T10:16:53.977Z,72.10
2023-01-26T10:20:08.116Z,52.40
2023-01-26T10:23:23.465Z,79.40
2023-01-26T10:26:31.718Z,71.00
2023-01-26T10:29:34.420Z,119.10
2023-01-26T10:32:37.586Z,155.00
2023-01-26T10:35:40.562Z,73.40
2023-01-26T10:38:44.681Z,60.70
2023-01-26T10:42:00.585Z,64.80
2023-01-26T10:45:24.513Z,81.30
2023-01-26T10:48:29.274Z,64.20
2023-01-26T10:51:34.043Z,70.20
2023-01-26T10:54:39.707Z,97.40
2023-01-26T10:57:43.049Z,87.00
2023-01-26T11:00:59.257Z,116.70
2023-01-26T11:04:12.276Z,67.80
2023-01-26T11:07:32.192Z,90.80
2023-01-26T11:10:37.529Z,74.80
2023-01-26T11:13:40.236Z,58.10
2023-01-26T11:16:47.771Z,70.00
2023-01-26T11:20:28.455Z,70.20
2023-01-26T11:23:41.606Z,50.50
2023-01-26T11:27:15.742Z,51.90
2023-01-26T11:31:00.047Z,65.40
2023-01-26T11:34:08.715Z,50.70
2023-01-26T11:37:44.949Z,57.30
2023-01-26T11:40:54.849Z,51.30
2023-01-26T11:44:08.026Z,58.10
2023-01-26T11:47:33.099Z,48.80
2023-01-26T11:50:46.418Z,51.30
2023-01-26T11:54:11.400Z,45.30
2023-01-26T11:57:20.164Z,47.90
2023-01-26T12:00:31.964Z,45.60
2023-01-26T12:03:45.449Z,51.30
2023-01-26T12:07:11.564Z,47.60
2023-01-26T12:10:15.692Z,50.00
2023-01-26T12:13:42.679Z,49.60
2023-01-26T12:16:51.745Z,51.70
2023-01-26T12:20:21.274Z,89.90
2023-01-26T12:23:27.774Z,61.80
2023-01-26T12:26:42.414Z,57.00
2023-01-26T12:30:00.878Z,58.80
2023-01-26T12:33:04.159Z,47.70
2023-01-26T12:36:26.407Z,47.40
2023-01-26T12:39:48.832Z,51.00
2023-01-26T12:43:36.855Z,73.30
2023-01-26T12:46:47.966Z,49.30
2023-01-26T12:49:56.836Z,45.00
2023-01-26T12:53:07.938Z,73.10
2023-01-26T12:56:10.754Z,49.20
2023-01-26T12:59:47.109Z,53.90
2023-01-26T13:03:00.447Z,48.10
2023-01-26T13:06:24.832Z,47.20
2023-01-26T13:09:27.726Z,46.60
2023-01-26T13:12:57.834Z,57.80
2023-01-26T13:16:16.086Z,54.60
2023-01-26T13:19:44.135Z,54.20
2023-01-26T13:22:47.690Z,58.90
2023-01-26T13:26:18.115Z,53.90
2023-01-26T13:29:34.075Z,60.00
2023-01-26T13:32:36.830Z,54.40
2023-01-26T13:35:40.299Z,61.00
2023-01-26T13:38:51.755Z,52.20
2023-01-26T13:41:54.933Z,53.70
2023-01-26T13:45:18.088Z,48.30
2023-01-26T13:48:34.838Z,54.90
2023-01-26T13:51:43.856Z,52.30
2023-01-26T13:54:51.077Z,52.10
2023-01-26T13:58:12.277Z,53.10
2023-01-26T14:01:17.197Z,50.80
2023-01-26T14:04:22.875Z,65.70
2023-01-26T14:07:41.839Z,47.40
2023-01-26T14:10:45.010Z,67.40
2023-01-26T14:13:52.009Z,51.10
2023-01-26T14:17:00.868Z,57.30
2023-01-26T14:20:24.521Z,58.30
2023-01-26T14:23:32.178Z,55.30
2023-01-26T14:26:35.375Z,63.80
2023-01-26T14:29:39.411Z,71.20
2023-01-26T14:32:43.446Z,59.60
2023-01-26T14:36:06.303Z,51.70
2023-01-26T14:39:17.306Z,55.30
2023-01-26T14:42:21.485Z,63.60
2023-01-26T14:45:35.166Z,60.40
2023-01-26T14:48:50.916Z,57.20
2023-01-26T14:51:59.461Z,67.60
2023-01-26T14:55:19.044Z,59.20
2023-01-26T14:58:31.034Z,121.10
2023-01-26T15:01:34.497Z,62.80
2023-01-26T15:04:50.219Z,50.60
2023-01-26T15:08:00.304Z,67.10
2023-01-26T15:11:22.760Z,61.20
2023-01-26T15:14:48.337Z,65.10
2023-01-26T15:18:05.434Z,63.70
2023-01-26T15:21:13.880Z,80.30
2023-01-26T15:24:17.159Z,64.30
2023-01-26T15:27:19.953Z,63.30
2023-01-26T15:30:33.525Z,65.40
2023-01-26T15:33:36.389Z,59.50
2023-01-26T15:36:51.931Z,57.40
2023-01-26T15:39:54.683Z,63.00
2023-01-26T15:43:14.168Z,63.70
2023-01-26T15:46:18.687Z,69.70
2023-01-26T15:49:25.572Z,73.80
2023-01-26T15:55:33.918Z,260.10
2023-01-26T15:58:36.829Z,93.70
2023-01-26T16:01:40.148Z,71.30
2023-01-26T16:04:43.652Z,62.00
2023-01-26T16:07:48.105Z,67.50
2023-01-26T16:10:51.319Z,67.20
2023-01-26T16:14:03.227Z,58.30
2023-01-26T16:17:15.754Z,64.90
2023-01-26T16:20:22.187Z,56.00
2023-01-26T16:23:28.689Z,70.40
2023-01-26T16:26:32.569Z,55.60
2023-01-26T16:29:35.809Z,65.00
2023-01-26T16:32:38.617Z,60.00
2023-01-26T16:35:41.609Z,54.90
2023-01-26T16:38:45.275Z,65.50
2023-01-26T16:41:48.473Z,63.40
2023-01-26T16:44:51.604Z,65.90
2023-01-26T16:47:56.929Z,61.90
2023-01-26T16:51:00.133Z,56.00
2023-01-26T16:54:03.499Z,63.30
2023-01-26T16:57:08.962Z,66.60
2023-01-26T17:00:21.439Z,62.30
2023-01-26T17:03:25.947Z,65.20
2023-01-26T17:06:29.495Z,67.00
2023-01-26T17:09:34.631Z,70.60
2023-01-26T17:12:37.518Z,72.70
2023-01-26T17:15:41.793Z,67.50
2023-01-26T17:18:45.538Z,68.20
2023-01-26T17:21:48.319Z,64.50
2023-01-26T17:24:51.059Z,61.90
2023-01-26T17:27:53.874Z,65.30
2023-01-26T17:30:58.360Z,65.50
2023-01-26T17:34:02.303Z,64.90
2023-01-26T17:37:05.138Z,70.10
2023-01-26T17:40:10.403Z,71.70
2023-01-26T17:43:13.120Z,73.80
2023-01-26T17:46:19.664Z,69.30
2023-01-26T17:49:22.513Z,78.50
2023-01-26T17:52:25.360Z,91.50
2023-01-26T17:55:30.267Z,71.60
2023-01-26T17:58:33.163Z,70.60
2023-01-26T18:01:36.800Z,79.00
2023-01-26T18:04:41.975Z,169.10
2023-01-26T18:07:44.859Z,99.10
2023-01-26T18:10:48.061Z,75.70
2023-01-26T18:13:52.160Z,70.30
2023-01-26T18:16:54.931Z,67.60
2023-01-26T18:19:57.839Z,69.60
2023-01-26T18:23:03.249Z,78.60
2023-01-26T18:26:06.571Z,85.50
2023-01-26T18:29:11.621Z,65.80
2023-01-26T18:32:14.745Z,65.00
2023-01-26T18:35:17.618Z,67.60
2023-01-26T18:38:20.357Z,66.60
2023-01-26T18:41:24.525Z,59.80
2023-01-26T18:44:27.504Z,67.30
2023-01-26T18:47:31.538Z,86.00
2023-01-26T18:50:34.549Z,1765.70
2023-01-26T18:53:43.113Z,1993.40
2023-01-26T18:56:47.391Z,648.00
2023-01-26T18:59:55.393Z,290.40
2023-01-26T19:02:58.143Z,115.90
2023-01-26T19:06:03.017Z,741.80
2023-01-26T19:09:08.299Z,718.40
2023-01-26T19:12:11.985Z,588.70
2023-01-26T19:15:17.415Z,552.40
2023-01-26T19:18:20.180Z,333.10
2023-01-26T19:21:24.923Z,357.10
2023-01-26T19:24:27.818Z,459.40
2023-01-26T19:27:31.704Z,282.40
2023-01-26T19:30:36.896Z,138.30
2023-01-26T19:33:40.391Z,137.20
2023-01-26T19:36:44.467Z,121.50
2023-01-26T19:39:47.722Z,221.70
2023-01-26T19:42:52.682Z,182.20
2023-01-26T19:45:58.490Z,154.00
2023-01-26T19:49:01.578Z,144.70
2023-01-26T19:52:07.199Z,161.80
2023-01-26T19:55:10.158Z,142.30
2023-01-26T19:58:13.956Z,117.00
2023-01-26T20:01:18.517Z,110.60
2023-01-26T20:04:21.372Z,145.90
2023-01-26T20:07:25.471Z,381.70
2023-01-26T20:10:28.241Z,123.10
2023-01-26T20:13:31.376Z,117.90
2023-01-26T20:16:35.407Z,142.30
2023-01-26T20:19:38.224Z,123.90
2023-01-26T20:22:40.993Z,134.40
2023-01-26T20:25:46.118Z,144.40
2023-01-26T20:28:49.115Z,170.00
2023-01-26T20:31:52.116Z,149.20
2023-01-26T20:34:54.990Z,163.50
2023-01-26T20:38:01.036Z,148.10
2023-01-26T20:41:09.035Z,164.50
2023-01-26T20:44:11.783Z,115.30
2023-01-26T20:47:14.585Z,108.50
2023-01-26T20:50:17.490Z,110.00
2023-01-26T20:53:20.294Z,103.00
2023-01-26T20:56:23.746Z,111.30
2023-01-26T20:59:26.918Z,174.60
2023-01-26T21:02:29.950Z,202.90
2023-01-26T21:05:32.797Z,136.80
2023-01-26T21:08:38.631Z,133.00
2023-01-26T21:11:41.588Z,195.40
2023-01-26T21:14:45.514Z,145.70
2023-01-26T21:17:48.408Z,125.90
2023-01-26T21:21:00.793Z,117.80
2023-01-26T21:24:03.950Z,105.90
2023-01-26T21:27:08.084Z,104.20
2023-01-26T21:30:12.121Z,95.20
2023-01-26T21:33:15.019Z,105.20
2023-01-26T21:36:23.677Z,98.80
2023-01-26T21:39:26.490Z,94.90
2023-01-26T21:42:29.194Z,97.00
2023-01-26T21:45:50.540Z,97.10
2023-01-26T21:48:53.366Z,102.20
2023-01-26T21:52:16.032Z,92.20
2023-01-26T21:55:18.771Z,95.50
2023-01-26T21:58:40.274Z,98.60
2023-01-26T22:01:56.361Z,96.30
2023-01-26T22:04:59.150Z,105.70
2023-01-26T22:08:01.934Z,111.80
2023-01-26T22:11:04.798Z,103.80
2023-01-26T22:14:12.690Z,98.70
2023-01-26T22:17:17.502Z,102.30
2023-01-26T22:20:21.674Z,105.70
2023-01-26T22:23:24.482Z,109.20
2023-01-26T22:26:27.369Z,101.00
2023-01-26T22:29:33.101Z,108.10
2023-01-26T22:32:36.072Z,99.40
2023-01-26T22:35:38.854Z,119.70
2023-01-26T22:38:42.035Z,117.60
2023-01-26T22:41:46.409Z,105.70
2023-01-26T22:44:49.236Z,103.70
2023-01-26T22:47:52.465Z,112.80
2023-01-26T22:50:57.514Z,113.30
2023-01-26T22:54:00.253Z,100.30
2023-01-26T22:57:03.606Z,129.60
2023-01-26T23:00:07.702Z,129.70
2023-01-26T23:03:10.469Z,115.70
2023-01-26T23:06:15.108Z,119.40
2023-01-26T23:09:17.890Z,113.20
2023-01-26T23:12:34.492Z,112.00
2023-01-26T23:15:38.278Z,111.30
2023-01-26T23:18:41.953Z,110.00
2023-01-26T23:21:46.250Z,113.80
2023-01-26T23:25:08.979Z,107.30
2023-01-26T23:28:12.687Z,119.30
2023-01-26T23:31:17.053Z,100.30
2023-01-26T23:34:19.872Z,106.90
2023-01-26T23:37:22.789Z,109.20
2023-01-26T23:40:25.611Z,98.70
2023-01-26T23:43:28.414Z,106.40
2023-01-26T23:46:31.531Z,97.50
2023-01-26T23:49:34.445Z,103.60
2023-01-26T23:52:37.679Z,105.70
2023-01-26T23:55:42.936Z,101.90
2023-01-26T23:58:45.953Z,109.00
